createdAt,value
2023-03-13T00:01:48.009Z,43.12
2023-03-13T00:06:49.950Z,43.12
2023-03-13T00:11:52.361Z,43.32
2023-03-13T00:16:54.430Z,43.22
2023-03-13T00:21:56.452Z,43.30
2023-03-13T00:27:03.474Z,42.76
2023-03-13T00:32:05.962Z,42.73
2023-03-13T00:37:08.028Z,43.12
2023-03-13T00:42:09.918Z,42.96
2023-03-13T00:47:11.898Z,43.15
2023-03-13T00:52:13.916Z,42.88
2023-03-13T00:57:15.857Z,42.76
2023-03-13T01:02:18.219Z,42.69
2023-03-13T01:07:20.101Z,43.10
2023-03-13T01:12:22.023Z,42.95
2023-03-13T01:17:24.043Z,43.26
2023-03-13T01:22:26.063Z,43.45
2023-03-13T01:27:29.082Z,43.19
2023-03-13T01:32:33.977Z,43.26
2023-03-13T01:37:35.988Z,43.27
2023-03-13T01:42:55.258Z,43.18
2023-03-13T01:47:58.318Z,43.38
2023-03-13T01:53:00.447Z,43.13
2023-03-13T01:58:02.537Z,43.58
2023-03-13T02:03:09.353Z,43.45
2023-03-13T02:08:49.430Z,43.31
2023-03-13T02:13:52.297Z,43.37
2023-03-13T02:18:54.416Z,43.63
2023-03-13T02:24:22.963Z,43.72
2023-03-13T02:29:25.880Z,43.43
2023-03-13T02:34:32.602Z,43.75
2023-03-13T02:39:35.260Z,43.34
2023-03-13T02:44:41.326Z,43.62
2023-03-13T02:49:43.356Z,43.51
2023-03-13T02:54:47.719Z,43.53
2023-03-13T02:59:49.659Z,43.83
2023-03-13T03:04:51.520Z,43.82
2023-03-13T03:09:53.442Z,43.59
2023-03-13T03:14:55.280Z,43.93
2023-03-13T03:19:57.405Z,43.88
2023-03-13T03:24:59.327Z,43.77
2023-03-13T03:30:01.216Z,43.98
2023-03-13T03:35:03.385Z,44.08
2023-03-13T03:40:10.097Z,44.09
2023-03-13T03:45:12.084Z,43.91
2023-03-13T03:50:14.223Z,44.12
2023-03-13T03:55:16.212Z,43.95
2023-03-13T04:00:19.828Z,44.18
2023-03-13T04:05:22.606Z,43.92
2023-03-13T04:10:24.539Z,44.19
2023-03-13T04:15:26.607Z,44.20
2023-03-13T04:20:29.152Z,44.38
2023-03-13T04:25:31.211Z,44.76
2023-03-13T04:30:33.303Z,44.63
2023-03-13T04:35:35.274Z,44.53
2023-03-13T04:40:37.114Z,44.23
2023-03-13T04:45:38.994Z,44.53
2023-03-13T04:50:40.827Z,44.97
2023-03-13T04:55:42.986Z,44.63
2023-03-13T05:00:44.786Z,44.69
2023-03-13T05:05:46.662Z,44.40
2023-03-13T05:10:48.465Z,44.42
2023-03-13T05:15:50.384Z,44.54
2023-03-13T05:20:52.273Z,44.67
2023-03-13T05:25:56.639Z,44.55
2023-03-13T05:30:58.730Z,44.83
2023-03-13T05:36:00.631Z,44.69
2023-03-13T05:41:02.760Z,44.58
2023-03-13T05:46:04.985Z,44.55
2023-03-13T05:51:07.225Z,44.87
2023-03-13T05:56:09.376Z,44.73
2023-03-13T06:01:13.810Z,44.64
2023-03-13T06:06:15.955Z,44.73
2023-03-13T06:11:17.911Z,44.61
2023-03-13T06:16:20.333Z,44.47
2023-03-13T06:21:22.089Z,44.68
2023-03-13T06:26:26.066Z,44.69
2023-03-13T06:31:27.937Z,44.90
2023-03-13T06:36:29.945Z,44.90
2023-03-13T06:41:31.877Z,44.49
2023-03-13T06:46:33.753Z,44.82
2023-03-13T06:51:35.654Z,44.84
2023-03-13T06:56:37.782Z,44.83
2023-03-13T07:01:39.545Z,45.42
2023-03-13T07:06:41.353Z,46.95
2023-03-13T07:11:43.308Z,47.75
2023-03-13T07:16:46.549Z,48.01
2023-03-13T07:21:49.880Z,49.26
2023-03-13T07:27:04.914Z,47.94
2023-03-13T07:32:09.477Z,47.81
2023-03-13T07:37:12.893Z,47.32
2023-03-13T07:42:14.744Z,47.48
2023-03-13T07:47:16.901Z,46.86
2023-03-13T07:52:23.312Z,47.07
2023-03-13T07:57:25.229Z,47.18
2023-03-13T08:02:27.346Z,46.91
2023-03-13T08:07:29.336Z,46.65
2023-03-13T08:12:31.365Z,46.50
2023-03-13T08:17:33.227Z,46.47
2023-03-13T08:22:37.255Z,46.33
2023-03-13T08:27:39.437Z,46.63
2023-03-13T08:32:41.585Z,46.04
2023-03-13T08:37:43.790Z,46.44
2023-03-13T08:42:45.920Z,47.18
2023-03-13T08:47:52.164Z,46.93
2023-03-13T08:52:54.227Z,47.19
2023-03-13T08:57:56.322Z,46.69
2023-03-13T09:02:58.775Z,46.76
2023-03-13T09:08:00.647Z,46.25
2023-03-13T09:13:03.274Z,46.34
2023-03-13T09:18:06.755Z,46.46
2023-03-13T09:23:08.698Z,46.98
2023-03-13T09:28:10.699Z,47.04
2023-03-13T09:33:12.859Z,47.21
2023-03-13T09:38:15.295Z,47.87
2023-03-13T09:43:41.385Z,48.53
2023-03-13T09:48:51.565Z,48.58
2023-03-13T09:54:09.113Z,48.38
2023-03-13T09:59:18.029Z,48.54
2023-03-13T10:04:20.043Z,48.44
2023-03-13T10:09:30.036Z,48.45
2023-03-13T10:15:02.598Z,48.27
2023-03-13T10:20:24.905Z,49.08
2023-03-13T10:25:41.322Z,49.03
2023-03-13T10:30:48.756Z,48.17
2023-03-13T10:36:09.306Z,48.93
2023-03-13T10:41:20.429Z,48.98
2023-03-13T10:46:31.133Z,49.08
2023-03-13T10:51:38.861Z,49.35
2023-03-13T10:56:40.802Z,49.22
2023-03-13T11:01:45.140Z,49.37
2023-03-13T11:06:58.270Z,49.33
2023-03-13T11:12:21.234Z,49.32
2023-03-13T11:17:29.135Z,49.60
2023-03-13T11:22:54.118Z,49.70
2023-03-13T11:28:14.221Z,49.66
2023-03-13T11:33:33.475Z,49.79
2023-03-13T11:38:44.770Z,49.45
2023-03-13T11:44:04.654Z,49.33
2023-03-13T11:49:34.819Z,49.55
2023-03-13T11:54:54.621Z,49.62
2023-03-13T12:00:23.097Z,49.13
2023-03-13T12:05:26.674Z,49.55
2023-03-13T12:10:44.350Z,48.97
2023-03-13T12:15:51.964Z,50.08
2023-03-13T12:21:06.840Z,49.92
2023-03-13T12:26:20.924Z,49.79
2023-03-13T12:31:28.775Z,49.60
2023-03-13T12:36:44.453Z,49.62
2023-03-13T12:42:07.897Z,49.76
2023-03-13T12:47:33.741Z,49.56
2023-03-13T12:53:02.180Z,49.57
2023-03-13T12:58:18.058Z,49.58
2023-03-13T13:03:44.429Z,49.23
2023-03-13T13:09:02.394Z,49.51
2023-03-13T13:14:19.212Z,49.48
2023-03-13T13:19:23.937Z,52.52
2023-03-13T13:24:41.124Z,51.71
2023-03-13T13:29:42.904Z,52.27
2023-03-13T13:35:06.974Z,51.96
2023-03-13T13:40:29.605Z,51.94
2023-03-13T13:45:38.264Z,51.02
2023-03-13T13:50:40.384Z,51.46
2023-03-13T13:55:44.513Z,50.81
2023-03-13T14:00:54.319Z,50.46
2023-03-13T14:06:40.970Z,53.51
2023-03-13T14:11:43.097Z,53.45
2023-03-13T14:16:52.812Z,54.97
2023-03-13T14:22:00.404Z,54.68
2023-03-13T14:27:03.546Z,54.75
2023-03-13T14:32:06.478Z,55.47
2023-03-13T14:37:38.340Z,54.45
2023-03-13T14:42:48.332Z,54.22
2023-03-13T14:47:54.508Z,54.07
2023-03-13T14:53:12.739Z,54.33
2023-03-13T14:58:20.628Z,54.31
2023-03-13T15:03:31.811Z,53.92
2023-03-13T15:08:35.949Z,54.36
2023-03-13T15:13:38.224Z,55.41
2023-03-13T15:18:40.836Z,54.17
2023-03-13T15:23:47.460Z,55.50
2023-03-13T15:28:49.679Z,55.82
2023-03-13T15:33:56.882Z,55.76
2023-03-13T15:38:58.870Z,55.65
2023-03-13T15:44:00.965Z,55.96
2023-03-13T15:49:03.177Z,55.68
2023-03-13T15:54:05.152Z,55.67
2023-03-13T15:59:12.085Z,55.01
2023-03-13T16:04:14.298Z,54.90
2023-03-13T16:09:18.146Z,56.28
2023-03-13T16:14:20.222Z,58.07
2023-03-13T16:19:22.004Z,56.10
2023-03-13T16:24:23.865Z,55.61
2023-03-13T16:29:25.928Z,56.93
2023-03-13T16:34:27.741Z,57.75
2023-03-13T16:39:29.773Z,58.52
2023-03-13T16:44:31.753Z,59.57
2023-03-13T16:49:33.717Z,57.32
2023-03-13T16:54:35.667Z,56.33
2023-03-13T16:59:37.628Z,55.46
2023-03-13T17:04:39.549Z,54.73
2023-03-13T17:09:41.868Z,54.66
2023-03-13T17:14:44.108Z,55.88
2023-03-13T17:19:46.078Z,55.69
2023-03-13T17:24:49.452Z,54.70
2023-03-13T17:29:51.192Z,53.99
2023-03-13T17:34:53.171Z,54.22
2023-03-13T17:39:55.394Z,53.37
2023-03-13T17:44:57.263Z,52.65
2023-03-13T17:49:59.177Z,52.20
2023-03-13T17:55:01.114Z,52.25
2023-03-13T18:00:04.247Z,51.68
2023-03-13T18:05:06.528Z,51.15
2023-03-13T18:10:19.600Z,51.07
2023-03-13T18:15:22.971Z,50.41
2023-03-13T18:20:27.061Z,51.87
2023-03-13T18:25:29.671Z,53.33
2023-03-13T18:30:31.551Z,54.59
2023-03-13T18:35:33.732Z,56.03
2023-03-13T18:40:35.713Z,57.27
2023-03-13T18:45:38.630Z,58.32
2023-03-13T18:50:40.645Z,59.85
2023-03-13T18:55:42.804Z,58.98
2023-03-13T19:00:45.026Z,58.80
2023-03-13T19:05:46.838Z,57.35
2023-03-13T19:10:49.122Z,56.72
2023-03-13T19:15:51.422Z,55.54
2023-03-13T19:20:53.549Z,54.95
2023-03-13T19:25:57.128Z,54.38
2023-03-13T19:30:58.991Z,54.25
2023-03-13T19:36:01.610Z,54.01
2023-03-13T19:41:04.097Z,53.00
2023-03-13T19:46:21.393Z,52.64
2023-03-13T19:51:24.144Z,52.39
2023-03-13T19:56:31.308Z,51.76
2023-03-13T20:01:33.365Z,52.04
2023-03-13T20:06:35.909Z,51.92
2023-03-13T20:11:38.294Z,51.44
2023-03-13T20:16:40.140Z,51.18
2023-03-13T20:21:43.146Z,51.31
2023-03-13T20:26:45.068Z,50.78
2023-03-13T20:31:47.253Z,50.28
2023-03-13T20:36:49.206Z,49.89
2023-03-13T20:41:51.200Z,50.07
2023-03-13T20:46:53.261Z,49.83
2023-03-13T20:51:55.317Z,50.13
2023-03-13T20:56:58.493Z,50.51
2023-03-13T21:02:00.494Z,50.62
2023-03-13T21:07:04.783Z,50.64
2023-03-13T21:12:07.433Z,50.12
2023-03-13T21:17:11.546Z,49.97
2023-03-13T21:22:13.609Z,49.44
2023-03-13T21:27:16.255Z,49.17
2023-03-13T21:32:19.767Z,49.05
2023-03-13T21:37:21.871Z,48.66
2023-03-13T21:42:23.868Z,48.84
2023-03-13T21:47:26.206Z,49.37
2023-03-13T21:52:28.257Z,49.51
2023-03-13T21:57:30.732Z,49.35
2023-03-13T22:02:32.889Z,52.96
2023-03-13T22:07:36.132Z,51.79
2023-03-13T22:12:38.154Z,51.32
2023-03-13T22:17:40.110Z,51.37
2023-03-13T22:22:41.950Z,51.40
2023-03-13T22:27:43.943Z,50.91
2023-03-13T22:32:46.034Z,50.85
2023-03-13T22:37:48.301Z,50.20
2023-03-13T22:42:51.937Z,49.19
2023-03-13T22:47:53.951Z,48.98
2023-03-13T22:52:56.129Z,49.26
2023-03-13T22:57:58.250Z,48.73
2023-03-13T23:03:00.490Z,48.26
2023-03-13T23:08:02.465Z,48.38
2023-03-13T23:13:04.803Z,48.57
2023-03-13T23:18:08.153Z,48.59
2023-03-13T23:23:10.104Z,48.05
2023-03-13T23:28:12.153Z,48.32
2023-03-13T23:33:14.081Z,47.71
2023-03-13T23:38:18.690Z,48.14
2023-03-13T23:43:20.856Z,48.21
2023-03-13T23:48:22.768Z,47.91
2023-03-13T23:53:24.769Z,47.74
2023-03-13T23:58:26.896Z,48.14
